sensor_id;sensor_type;location;lat;lon;timestamp;P1;durP1;ratioP1;P2;durP2;ratioP2
26582;SDS011;14230;45.382;10.998;2023-01-24T00:01:09;4.72;;;4.32;;
26582;SDS011;14230;45.382;10.998;2023-01-24T00:03:37;5.35;;;4.25;;
26582;SDS011;14230;45.382;10.998;2023-01-24T00:06:04;3.80;;;3.45;;
26582;SDS011;14230;45.382;10.998;2023-01-24T00:08:32;4.30;;;3.90;;
26582;SDS011;14230;45.382;10.998;2023-01-24T00:11:00;3.67;;;3.38;;
26582;SDS011;14230;45.382;10.998;2023-01-24T00:13:30;4.57;;;3.65;;
26582;SDS011;14230;45.382;10.998;2023-01-24T00:16:02;4.40;;;4.00;;
26582;SDS011;14230;45.382;10.998;2023-01-24T00:18:31;4.25;;;3.25;;
26582;SDS011;14230;45.382;10.998;2023-01-24T00:21:00;3.70;;;3.35;;
26582;SDS011;14230;45.382;10.998;2023-01-24T00:23:29;5.05;;;4.28;;
26582;SDS011;14230;45.382;10.998;2023-01-24T00:25:56;5.63;;;2.95;;
26582;SDS011;14230;45.382;10.998;2023-01-24T00:28:23;4.32;;;3.92;;
26582;SDS011;14230;45.382;10.998;2023-01-24T00:30:51;5.97;;;4.68;;
26582;SDS011;14230;45.382;10.998;2023-01-24T00:33:19;4.18;;;3.78;;
26582;SDS011;14230;45.382;10.998;2023-01-24T00:35:46;4.07;;;3.47;;
26582;SDS011;14230;45.382;10.998;2023-01-24T00:38:17;3.63;;;3.33;;
26582;SDS011;14230;45.382;10.998;2023-01-24T00:40:45;3.63;;;3.33;;
26582;SDS011;14230;45.382;10.998;2023-01-24T00:43:13;3.05;;;2.75;;
26582;SDS011;14230;45.382;10.998;2023-01-24T00:45:41;3.67;;;3.38;;
26582;SDS011;14230;45.382;10.998;2023-01-24T00:48:10;14.52;;;8.48;;
26582;SDS011;14230;45.382;10.998;2023-01-24T00:50:39;6.75;;;4.88;;
26582;SDS011;14230;45.382;10.998;2023-01-24T00:53:07;3.97;;;3.58;;
26582;SDS011;14230;45.382;10.998;2023-01-24T00:55:40;4.68;;;4.28;;
26582;SDS011;14230;45.382;10.998;2023-01-24T00:58:09;5.00;;;3.70;;
26582;SDS011;14230;45.382;10.998;2023-01-24T01:00:38;5.20;;;4.70;;
26582;SDS011;14230;45.382;10.998;2023-01-24T01:03:06;4.30;;;3.50;;
26582;SDS011;14230;45.382;10.998;2023-01-24T01:05:37;4.28;;;3.53;;
26582;SDS011;14230;45.382;10.998;2023-01-24T01:08:05;4.13;;;3.35;;
26582;SDS011;14230;45.382;10.998;2023-01-24T01:10:32;4.03;;;3.22;;
26582;SDS011;14230;45.382;10.998;2023-01-24T01:13:00;4.38;;;3.70;;
26582;SDS011;14230;45.382;10.998;2023-01-24T01:15:28;3.65;;;3.35;;
26582;SDS011;14230;45.382;10.998;2023-01-24T01:17:57;4.97;;;3.25;;
26582;SDS011;14230;45.382;10.998;2023-01-24T01:20:25;3.60;;;3.17;;
26582;SDS011;14230;45.382;10.998;2023-01-24T01:22:53;4.13;;;3.83;;
26582;SDS011;14230;45.382;10.998;2023-01-24T01:25:21;3.75;;;3.45;;
26582;SDS011;14230;45.382;10.998;2023-01-24T01:27:49;3.42;;;2.95;;
26582;SDS011;14230;45.382;10.998;2023-01-24T01:30:16;4.10;;;3.53;;
26582;SDS011;14230;45.382;10.998;2023-01-24T01:32:44;3.83;;;2.72;;
26582;SDS011;14230;45.382;10.998;2023-01-24T01:35:12;6.00;;;3.85;;
26582;SDS011;14230;45.382;10.998;2023-01-24T01:37:39;3.78;;;3.20;;
26582;SDS011;14230;45.382;10.998;2023-01-24T01:40:07;4.72;;;3.90;;
26582;SDS011;14230;45.382;10.998;2023-01-24T01:45:38;4.63;;;3.30;;
26582;SDS011;14230;45.382;10.998;2023-01-24T01:48:18;3.47;;;3.05;;
26582;SDS011;14230;45.382;10.998;2023-01-24T01:53:37;3.60;;;3.30;;
26582;SDS011;14230;45.382;10.998;2023-01-24T01:56:20;3.90;;;2.72;;
26582;SDS011;14230;45.382;10.998;2023-01-24T01:58:49;4.03;;;2.65;;
26582;SDS011;14230;45.382;10.998;2023-01-24T02:01:17;5.45;;;3.72;;
26582;SDS011;14230;45.382;10.998;2023-01-24T02:03:59;4.63;;;3.53;;
26582;SDS011;14230;45.382;10.998;2023-01-24T02:06:46;3.90;;;3.60;;
26582;SDS011;14230;45.382;10.998;2023-01-24T02:09:14;3.72;;;3.42;;
26582;SDS011;14230;45.382;10.998;2023-01-24T02:11:46;3.55;;;3.25;;
26582;SDS011;14230;45.382;10.998;2023-01-24T02:14:17;3.78;;;3.42;;
26582;SDS011;14230;45.382;10.998;2023-01-24T02:17:04;3.47;;;2.53;;
26582;SDS011;14230;45.382;10.998;2023-01-24T02:22:05;3.60;;;3.30;;
26582;SDS011;14230;45.382;10.998;2023-01-24T02:24:42;3.20;;;2.92;;
26582;SDS011;14230;45.382;10.998;2023-01-24T02:27:15;3.72;;;2.50;;
26582;SDS011;14230;45.382;10.998;2023-01-24T02:29:42;4.15;;;3.17;;
26582;SDS011;14230;45.382;10.998;2023-01-24T02:32:10;4.93;;;3.45;;
26582;SDS011;14230;45.382;10.998;2023-01-24T02:34:39;4.18;;;3.38;;
26582;SDS011;14230;45.382;10.998;2023-01-24T02:37:10;3.47;;;3.17;;
26582;SDS011;14230;45.382;10.998;2023-01-24T02:42:34;3.70;;;3.40;;
26582;SDS011;14230;45.382;10.998;2023-01-24T02:45:05;4.38;;;3.97;;
26582;SDS011;14230;45.382;10.998;2023-01-24T02:47:37;4.88;;;4.38;;
26582;SDS011;14230;45.382;10.998;2023-01-24T02:50:08;2.70;;;2.50;;
26582;SDS011;14230;45.382;10.998;2023-01-24T02:52:37;3.65;;;3.28;;
26582;SDS011;14230;45.382;10.998;2023-01-24T02:55:23;3.75;;;3.42;;
26582;SDS011;14230;45.382;10.998;2023-01-24T02:57:53;4.00;;;3.08;;
26582;SDS011;14230;45.382;10.998;2023-01-24T03:00:41;2.72;;;2.50;;
26582;SDS011;14230;45.382;10.998;2023-01-24T03:03:13;3.22;;;2.95;;
26582;SDS011;14230;45.382;10.998;2023-01-24T03:05:40;4.18;;;3.05;;
26582;SDS011;14230;45.382;10.998;2023-01-24T03:08:30;4.53;;;3.53;;
26582;SDS011;14230;45.382;10.998;2023-01-24T03:11:00;3.38;;;3.08;;
26582;SDS011;14230;45.382;10.998;2023-01-24T03:13:30;3.33;;;3.03;;
26582;SDS011;14230;45.382;10.998;2023-01-24T03:16:17;4.00;;;3.70;;
26582;SDS011;14230;45.382;10.998;2023-01-24T03:19:03;3.03;;;2.72;;
26582;SDS011;14230;45.382;10.998;2023-01-24T03:21:50;3.95;;;3.33;;
26582;SDS011;14230;45.382;10.998;2023-01-24T03:24:36;3.55;;;2.95;;
26582;SDS011;14230;45.382;10.998;2023-01-24T03:27:23;3.10;;;2.72;;
26582;SDS011;14230;45.382;10.998;2023-01-24T03:30:14;4.03;;;3.33;;
26582;SDS011;14230;45.382;10.998;2023-01-24T03:33:02;3.50;;;3.20;;
26582;SDS011;14230;45.382;10.998;2023-01-24T03:35:49;5.38;;;4.10;;
26582;SDS011;14230;45.382;10.998;2023-01-24T03:38:23;4.18;;;3.80;;
26582;SDS011;14230;45.382;10.998;2023-01-24T03:41:09;4.85;;;3.88;;
26582;SDS011;14230;45.382;10.998;2023-01-24T03:43:38;3.85;;;3.33;;
26582;SDS011;14230;45.382;10.998;2023-01-24T03:46:07;3.88;;;3.58;;
26582;SDS011;14230;45.382;10.998;2023-01-24T03:49:00;3.75;;;3.00;;
26582;SDS011;14230;45.382;10.998;2023-01-24T03:51:34;5.40;;;3.55;;
26582;SDS011;14230;45.382;10.998;2023-01-24T03:54:21;3.20;;;2.90;;
26582;SDS011;14230;45.382;10.998;2023-01-24T03:56:56;3.83;;;3.53;;
26582;SDS011;14230;45.382;10.998;2023-01-24T03:59:24;3.17;;;2.88;;
26582;SDS011;14230;45.382;10.998;2023-01-24T04:01:52;4.30;;;2.80;;
26582;SDS011;14230;45.382;10.998;2023-01-24T04:07:11;3.65;;;3.33;;
26582;SDS011;14230;45.382;10.998;2023-01-24T04:09:54;3.70;;;3.40;;
26582;SDS011;14230;45.382;10.998;2023-01-24T04:12:22;3.70;;;3.25;;
26582;SDS011;14230;45.382;10.998;2023-01-24T04:14:50;3.13;;;2.88;;
26582;SDS011;14230;45.382;10.998;2023-01-24T04:17:18;3.83;;;2.85;;
26582;SDS011;14230;45.382;10.998;2023-01-24T04:19:50;3.80;;;3.15;;
26582;SDS011;14230;45.382;10.998;2023-01-24T04:22:17;4.13;;;3.03;;
26582;SDS011;14230;45.382;10.998;2023-01-24T04:24:47;3.45;;;3.10;;
26582;SDS011;14230;45.382;10.998;2023-01-24T04:27:16;3.10;;;2.70;;
26582;SDS011;14230;45.382;10.998;2023-01-24T04:30:01;3.63;;;3.33;;
26582;SDS011;14230;45.382;10.998;2023-01-24T04:32:32;3.65;;;3.35;;
26582;SDS011;14230;45.382;10.998;2023-01-24T04:35:05;3.42;;;3.05;;
26582;SDS011;14230;45.382;10.998;2023-01-24T04:37:47;3.72;;;3.38;;
26582;SDS011;14230;45.382;10.998;2023-01-24T04:40:22;3.75;;;3.45;;
26582;SDS011;14230;45.382;10.998;2023-01-24T04:42:50;3.38;;;3.08;;
26582;SDS011;14230;45.382;10.998;2023-01-24T04:45:17;3.45;;;3.15;;
26582;SDS011;14230;45.382;10.998;2023-01-24T04:47:45;3.38;;;2.72;;
26582;SDS011;14230;45.382;10.998;2023-01-24T04:50:13;3.38;;;3.08;;
26582;SDS011;14230;45.382;10.998;2023-01-24T04:52:41;4.63;;;3.20;;
26582;SDS011;14230;45.382;10.998;2023-01-24T04:55:09;4.80;;;3.92;;
26582;SDS011;14230;45.382;10.998;2023-01-24T04:57:37;4.13;;;3.83;;
26582;SDS011;14230;45.382;10.998;2023-01-24T05:00:05;5.05;;;3.80;;
26582;SDS011;14230;45.382;10.998;2023-01-24T05:02:35;4.70;;;3.95;;
26582;SDS011;14230;45.382;10.998;2023-01-24T05:05:05;3.70;;;3.13;;
26582;SDS011;14230;45.382;10.998;2023-01-24T05:07:33;5.07;;;3.47;;
26582;SDS011;14230;45.382;10.998;2023-01-24T05:10:06;4.13;;;3.83;;
26582;SDS011;14230;45.382;10.998;2023-01-24T05:12:34;4.57;;;3.72;;
26582;SDS011;14230;45.382;10.998;2023-01-24T05:15:08;4.13;;;3.72;;
26582;SDS011;14230;45.382;10.998;2023-01-24T05:17:36;4.43;;;3.53;;
26582;SDS011;14230;45.382;10.998;2023-01-24T05:20:04;4.25;;;3.85;;
26582;SDS011;14230;45.382;10.998;2023-01-24T05:22:32;5.97;;;4.05;;
26582;SDS011;14230;45.382;10.998;2023-01-24T05:24:59;4.43;;;4.03;;
26582;SDS011;14230;45.382;10.998;2023-01-24T05:27:26;6.13;;;4.60;;
26582;SDS011;14230;45.382;10.998;2023-01-24T05:29:59;4.97;;;4.10;;
26582;SDS011;14230;45.382;10.998;2023-01-24T05:32:26;4.28;;;3.88;;
26582;SDS011;14230;45.382;10.998;2023-01-24T05:34:54;5.32;;;4.65;;
26582;SDS011;14230;45.382;10.998;2023-01-24T05:37:22;4.75;;;4.30;;
26582;SDS011;14230;45.382;10.998;2023-01-24T05:39:49;5.25;;;4.45;;
26582;SDS011;14230;45.382;10.998;2023-01-24T05:42:17;7.65;;;5.15;;
26582;SDS011;14230;45.382;10.998;2023-01-24T05:44:48;6.00;;;5.20;;
26582;SDS011;14230;45.382;10.998;2023-01-24T05:47:15;7.00;;;5.25;;
26582;SDS011;14230;45.382;10.998;2023-01-24T05:49:45;6.72;;;4.43;;
26582;SDS011;14230;45.382;10.998;2023-01-24T05:52:12;5.95;;;4.75;;
26582;SDS011;14230;45.382;10.998;2023-01-24T05:54:54;6.18;;;4.65;;
26582;SDS011;14230;45.382;10.998;2023-01-24T05:57:27;7.63;;;6.10;;
26582;SDS011;14230;45.382;10.998;2023-01-24T06:00:27;6.70;;;5.28;;
26582;SDS011;14230;45.382;10.998;2023-01-24T06:03:13;6.40;;;5.78;;
26582;SDS011;14230;45.382;10.998;2023-01-24T06:05:44;6.10;;;5.32;;
26582;SDS011;14230;45.382;10.998;2023-01-24T06:08:18;6.07;;;5.18;;
26582;SDS011;14230;45.382;10.998;2023-01-24T06:10:46;8.13;;;6.18;;
26582;SDS011;14230;45.382;10.998;2023-01-24T06:13:14;7.18;;;5.30;;
26582;SDS011;14230;45.382;10.998;2023-01-24T06:15:42;6.10;;;5.22;;
26582;SDS011;14230;45.382;10.998;2023-01-24T06:18:15;6.80;;;5.45;;
26582;SDS011;14230;45.382;10.998;2023-01-24T06:20:47;7.50;;;5.40;;
26582;SDS011;14230;45.382;10.998;2023-01-24T06:23:25;9.98;;;6.65;;
26582;SDS011;14230;45.382;10.998;2023-01-24T06:25:58;7.55;;;5.63;;
26582;SDS011;14230;45.382;10.998;2023-01-24T06:28:27;19.08;;;10.35;;
26582;SDS011;14230;45.382;10.998;2023-01-24T06:31:05;9.93;;;7.25;;
26582;SDS011;14230;45.382;10.998;2023-01-24T06:33:40;11.25;;;6.82;;
26582;SDS011;14230;45.382;10.998;2023-01-24T06:39:03;10.75;;;7.35;;
26582;SDS011;14230;45.382;10.998;2023-01-24T06:41:40;9.73;;;7.25;;
26582;SDS011;14230;45.382;10.998;2023-01-24T06:44:09;9.63;;;6.60;;
26582;SDS011;14230;45.382;10.998;2023-01-24T06:46:38;9.23;;;6.78;;
26582;SDS011;14230;45.382;10.998;2023-01-24T06:49:05;9.55;;;7.30;;
26582;SDS011;14230;45.382;10.998;2023-01-24T06:51:33;12.38;;;8.18;;
26582;SDS011;14230;45.382;10.998;2023-01-24T06:54:00;11.32;;;8.13;;
26582;SDS011;14230;45.382;10.998;2023-01-24T06:56:30;12.55;;;8.35;;
26582;SDS011;14230;45.382;10.998;2023-01-24T06:58:58;11.75;;;7.05;;
26582;SDS011;14230;45.382;10.998;2023-01-24T07:01:25;15.52;;;7.82;;
26582;SDS011;14230;45.382;10.998;2023-01-24T07:03:53;10.32;;;7.72;;
26582;SDS011;14230;45.382;10.998;2023-01-24T07:06:20;8.95;;;6.60;;
26582;SDS011;14230;45.382;10.998;2023-01-24T07:08:49;7.10;;;5.85;;
26582;SDS011;14230;45.382;10.998;2023-01-24T07:11:17;10.02;;;6.13;;
26582;SDS011;14230;45.382;10.998;2023-01-24T07:13:44;9.38;;;6.97;;
26582;SDS011;14230;45.382;10.998;2023-01-24T07:16:12;8.80;;;6.93;;
26582;SDS011;14230;45.382;10.998;2023-01-24T07:18:39;12.75;;;7.20;;
26582;SDS011;14230;45.382;10.998;2023-01-24T07:21:07;14.63;;;8.30;;
26582;SDS011;14230;45.382;10.998;2023-01-24T07:23:35;13.50;;;7.72;;
26582;SDS011;14230;45.382;10.998;2023-01-24T07:26:04;9.18;;;6.70;;
26582;SDS011;14230;45.382;10.998;2023-01-24T07:28:36;11.30;;;6.88;;
26582;SDS011;14230;45.382;10.998;2023-01-24T07:31:03;12.80;;;7.60;;
26582;SDS011;14230;45.382;10.998;2023-01-24T07:33:32;9.88;;;7.00;;
26582;SDS011;14230;45.382;10.998;2023-01-24T07:35:59;10.55;;;7.38;;
26582;SDS011;14230;45.382;10.998;2023-01-24T07:38:26;9.63;;;6.85;;
26582;SDS011;14230;45.382;10.998;2023-01-24T07:40:54;10.52;;;7.35;;
26582;SDS011;14230;45.382;10.998;2023-01-24T07:43:22;17.55;;;10.52;;
26582;SDS011;14230;45.382;10.998;2023-01-24T07:45:49;29.20;;;14.07;;
26582;SDS011;14230;45.382;10.998;2023-01-24T07:48:18;23.17;;;11.82;;
26582;SDS011;14230;45.382;10.998;2023-01-24T07:50:46;17.33;;;9.80;;
26582;SDS011;14230;45.382;10.998;2023-01-24T07:53:13;18.00;;;9.68;;
26582;SDS011;14230;45.382;10.998;2023-01-24T07:55:41;8.25;;;5.57;;
26582;SDS011;14230;45.382;10.998;2023-01-24T07:58:26;8.63;;;5.97;;
26582;SDS011;14230;45.382;10.998;2023-01-24T08:00:53;15.60;;;9.90;;
26582;SDS011;14230;45.382;10.998;2023-01-24T08:03:21;10.38;;;7.55;;
26582;SDS011;14230;45.382;10.998;2023-01-24T08:05:48;11.60;;;5.78;;
26582;SDS011;14230;45.382;10.998;2023-01-24T08:08:16;9.07;;;5.65;;
26582;SDS011;14230;45.382;10.998;2023-01-24T08:10:43;9.10;;;5.20;;
26582;SDS011;14230;45.382;10.998;2023-01-24T08:13:11;9.13;;;5.20;;
26582;SDS011;14230;45.382;10.998;2023-01-24T08:15:38;7.78;;;5.30;;
26582;SDS011;14230;45.382;10.998;2023-01-24T08:18:06;13.82;;;5.47;;
26582;SDS011;14230;45.382;10.998;2023-01-24T08:20:33;10.73;;;4.97;;
26582;SDS011;14230;45.382;10.998;2023-01-24T08:23:01;7.93;;;4.97;;
26582;SDS011;14230;45.382;10.998;2023-01-24T08:25:28;7.70;;;4.55;;
26582;SDS011;14230;45.382;10.998;2023-01-24T08:27:57;7.40;;;4.88;;
26582;SDS011;14230;45.382;10.998;2023-01-24T08:30:24;8.80;;;5.50;;
26582;SDS011;14230;45.382;10.998;2023-01-24T08:33:02;9.07;;;6.07;;
26582;SDS011;14230;45.382;10.998;2023-01-24T08:35:30;11.18;;;5.85;;
26582;SDS011;14230;45.382;10.998;2023-01-24T08:37:58;10.18;;;5.53;;
26582;SDS011;14230;45.382;10.998;2023-01-24T08:40:26;16.63;;;6.55;;
26582;SDS011;14230;45.382;10.998;2023-01-24T08:42:59;14.55;;;5.40;;
26582;SDS011;14230;45.382;10.998;2023-01-24T08:45:27;16.23;;;6.18;;
26582;SDS011;14230;45.382;10.998;2023-01-24T08:47:55;9.18;;;6.03;;
26582;SDS011;14230;45.382;10.998;2023-01-24T08:50:23;19.90;;;6.93;;
26582;SDS011;14230;45.382;10.998;2023-01-24T08:52:53;12.20;;;5.90;;
26582;SDS011;14230;45.382;10.998;2023-01-24T08:55:23;9.43;;;4.90;;
26582;SDS011;14230;45.382;10.998;2023-01-24T08:57:51;7.70;;;4.80;;
26582;SDS011;14230;45.382;10.998;2023-01-24T09:00:18;9.45;;;5.75;;
26582;SDS011;14230;45.382;10.998;2023-01-24T09:02:46;10.82;;;5.65;;
26582;SDS011;14230;45.382;10.998;2023-01-24T09:05:13;9.80;;;5.00;;
26582;SDS011;14230;45.382;10.998;2023-01-24T09:07:41;11.35;;;6.05;;
26582;SDS011;14230;45.382;10.998;2023-01-24T09:10:08;8.75;;;6.07;;
26582;SDS011;14230;45.382;10.998;2023-01-24T09:12:36;9.48;;;5.63;;
26582;SDS011;14230;45.382;10.998;2023-01-24T09:15:04;9.18;;;5.70;;
26582;SDS011;14230;45.382;10.998;2023-01-24T09:17:31;7.90;;;5.20;;
26582;SDS011;14230;45.382;10.998;2023-01-24T09:19:59;10.30;;;4.93;;
26582;SDS011;14230;45.382;10.998;2023-01-24T09:22:26;7.82;;;5.03;;
26582;SDS011;14230;45.382;10.998;2023-01-24T09:24:54;11.73;;;5.60;;
26582;SDS011;14230;45.382;10.998;2023-01-24T09:27:22;8.18;;;5.43;;
26582;SDS011;14230;45.382;10.998;2023-01-24T09:29:49;7.25;;;5.43;;
26582;SDS011;14230;45.382;10.998;2023-01-24T09:32:16;7.13;;;5.75;;
26582;SDS011;14230;45.382;10.998;2023-01-24T09:34:44;8.73;;;6.18;;
26582;SDS011;14230;45.382;10.998;2023-01-24T09:37:16;9.43;;;5.45;;
26582;SDS011;14230;45.382;10.998;2023-01-24T09:39:45;8.73;;;4.90;;
26582;SDS011;14230;45.382;10.998;2023-01-24T09:44:51;11.90;;;5.35;;
26582;SDS011;14230;45.382;10.998;2023-01-24T09:47:51;4.90;;;3.70;;
26582;SDS011;14230;45.382;10.998;2023-01-24T09:53:04;7.32;;;4.30;;
26582;SDS011;14230;45.382;10.998;2023-01-24T09:55:39;5.20;;;3.22;;
26582;SDS011;14230;45.382;10.998;2023-01-24T10:00:45;5.10;;;3.30;;
26582;SDS011;14230;45.382;10.998;2023-01-24T10:03:22;3.05;;;2.33;;
26582;SDS011;14230;45.382;10.998;2023-01-24T10:05:54;3.72;;;2.38;;
26582;SDS011;14230;45.382;10.998;2023-01-24T10:25:36;3.95;;;3.08;;
26582;SDS011;14230;45.382;10.998;2023-01-24T10:28:32;3.45;;;2.80;;
26582;SDS011;14230;45.382;10.998;2023-01-24T10:31:08;4.13;;;2.97;;
26582;SDS011;14230;45.382;10.998;2023-01-24T10:33:43;9.63;;;3.00;;
26582;SDS011;14230;45.382;10.998;2023-01-24T10:36:19;3.88;;;2.70;;
26582;SDS011;14230;45.382;10.998;2023-01-24T10:38:57;7.23;;;3.00;;
26582;SDS011;14230;45.382;10.998;2023-01-24T10:41:25;4.30;;;2.72;;
26582;SDS011;14230;45.382;10.998;2023-01-24T10:44:00;3.00;;;2.67;;
26582;SDS011;14230;45.382;10.998;2023-01-24T10:49:28;7.40;;;3.00;;
26582;SDS011;14230;45.382;10.998;2023-01-24T10:52:08;4.88;;;3.17;;
26582;SDS011;14230;45.382;10.998;2023-01-24T10:59:51;4.55;;;2.95;;
26582;SDS011;14230;45.382;10.998;2023-01-24T11:02:20;5.82;;;3.10;;
26582;SDS011;14230;45.382;10.998;2023-01-24T11:04:59;5.15;;;3.65;;
26582;SDS011;14230;45.382;10.998;2023-01-24T11:07:33;4.82;;;3.40;;
26582;SDS011;14230;45.382;10.998;2023-01-24T11:12:55;5.40;;;3.20;;
26582;SDS011;14230;45.382;10.998;2023-01-24T11:15:25;4.45;;;3.08;;
26582;SDS011;14230;45.382;10.998;2023-01-24T11:17:58;4.63;;;3.15;;
26582;SDS011;14230;45.382;10.998;2023-01-24T11:20:35;5.90;;;2.70;;
26582;SDS011;14230;45.382;10.998;2023-01-24T11:28:23;4.28;;;2.92;;
26582;SDS011;14230;45.382;10.998;2023-01-24T11:30:55;4.40;;;2.95;;
26582;SDS011;14230;45.382;10.998;2023-01-24T11:36:08;4.53;;;3.17;;
26582;SDS011;14230;45.382;10.998;2023-01-24T11:38:48;5.25;;;3.35;;
26582;SDS011;14230;45.382;10.998;2023-01-24T11:44:14;4.57;;;3.20;;
26582;SDS011;14230;45.382;10.998;2023-01-24T11:49:38;8.93;;;3.13;;
26582;SDS011;14230;45.382;10.998;2023-01-24T11:57:53;4.32;;;2.92;;
26582;SDS011;14230;45.382;10.998;2023-01-24T12:09:21;5.95;;;2.85;;
26582;SDS011;14230;45.382;10.998;2023-01-24T12:12:08;3.72;;;2.80;;
26582;SDS011;14230;45.382;10.998;2023-01-24T12:21:15;1.98;;;1.48;;
26582;SDS011;14230;45.382;10.998;2023-01-24T12:24:02;2.63;;;1.80;;
26582;SDS011;14230;45.382;10.998;2023-01-24T12:26:40;3.28;;;2.90;;
26582;SDS011;14230;45.382;10.998;2023-01-24T12:29:19;2.60;;;2.33;;
26582;SDS011;14230;45.382;10.998;2023-01-24T12:31:52;3.67;;;2.63;;
26582;SDS011;14230;45.382;10.998;2023-01-24T12:42:23;3.15;;;2.30;;
26582;SDS011;14230;45.382;10.998;2023-01-24T12:45:04;10.35;;;3.00;;
26582;SDS011;14230;45.382;10.998;2023-01-24T12:47:43;3.33;;;1.95;;
26582;SDS011;14230;45.382;10.998;2023-01-24T12:56:00;2.90;;;2.00;;
26582;SDS011;14230;45.382;10.998;2023-01-24T12:58:37;6.47;;;2.50;;
26582;SDS011;14230;45.382;10.998;2023-01-24T13:09:40;2.70;;;2.22;;
26582;SDS011;14230;45.382;10.998;2023-01-24T13:12:19;3.22;;;2.50;;
26582;SDS011;14230;45.382;10.998;2023-01-24T13:15:00;5.05;;;1.95;;
26582;SDS011;14230;45.382;10.998;2023-01-24T13:23:27;5.05;;;3.47;;
26582;SDS011;14230;45.382;10.998;2023-01-24T13:26:21;4.88;;;3.05;;
26582;SDS011;14230;45.382;10.998;2023-01-24T13:32:10;4.13;;;2.50;;
26582;SDS011;14230;45.382;10.998;2023-01-24T13:34:48;4.07;;;2.67;;
26582;SDS011;14230;45.382;10.998;2023-01-24T13:37:25;4.18;;;2.97;;
26582;SDS011;14230;45.382;10.998;2023-01-24T13:40:05;9.85;;;3.38;;
26582;SDS011;14230;45.382;10.998;2023-01-24T13:47:58;8.77;;;3.38;;
26582;SDS011;14230;45.382;10.998;2023-01-24T13:50:27;4.95;;;3.78;;
26582;SDS011;14230;45.382;10.998;2023-01-24T13:52:57;6.60;;;3.92;;
26582;SDS011;14230;45.382;10.998;2023-01-24T14:00:49;4.38;;;3.28;;
26582;SDS011;14230;45.382;10.998;2023-01-24T14:08:34;6.68;;;4.22;;
26582;SDS011;14230;45.382;10.998;2023-01-24T14:13:43;7.93;;;3.83;;
26582;SDS011;14230;45.382;10.998;2023-01-24T14:18:56;7.93;;;4.32;;
26582;SDS011;14230;45.382;10.998;2023-01-24T14:21:33;6.75;;;4.60;;
26582;SDS011;14230;45.382;10.998;2023-01-24T14:26:43;4.72;;;3.72;;
26582;SDS011;14230;45.382;10.998;2023-01-24T14:29:15;8.30;;;4.18;;
26582;SDS011;14230;45.382;10.998;2023-01-24T14:31:45;14.15;;;4.30;;
26582;SDS011;14230;45.382;10.998;2023-01-24T14:34:27;6.68;;;4.07;;
26582;SDS011;14230;45.382;10.998;2023-01-24T14:37:10;8.85;;;4.32;;
26582;SDS011;14230;45.382;10.998;2023-01-24T14:39:39;8.68;;;5.22;;
26582;SDS011;14230;45.382;10.998;2023-01-24T14:42:11;7.97;;;5.50;;
26582;SDS011;14230;45.382;10.998;2023-01-24T14:44:50;12.05;;;5.95;;
26582;SDS011;14230;45.382;10.998;2023-01-24T14:47:21;9.75;;;5.95;;
26582;SDS011;14230;45.382;10.998;2023-01-24T14:49:52;9.35;;;6.05;;
26582;SDS011;14230;45.382;10.998;2023-01-24T14:52:25;12.38;;;5.43;;
26582;SDS011;14230;45.382;10.998;2023-01-24T14:55:19;7.40;;;4.40;;
26582;SDS011;14230;45.382;10.998;2023-01-24T14:57:47;7.88;;;4.90;;
26582;SDS011;14230;45.382;10.998;2023-01-24T15:00:16;5.57;;;4.45;;
26582;SDS011;14230;45.382;10.998;2023-01-24T15:02:55;8.98;;;4.72;;
26582;SDS011;14230;45.382;10.998;2023-01-24T15:08:06;8.05;;;4.97;;
26582;SDS011;14230;45.382;10.998;2023-01-24T15:10:42;5.97;;;4.15;;
26582;SDS011;14230;45.382;10.998;2023-01-24T15:13:17;8.85;;;4.97;;
26582;SDS011;14230;45.382;10.998;2023-01-24T15:15:49;8.90;;;5.22;;
26582;SDS011;14230;45.382;10.998;2023-01-24T15:23:53;9.32;;;5.45;;
26582;SDS011;14230;45.382;10.998;2023-01-24T15:26:34;11.23;;;5.53;;
26582;SDS011;14230;45.382;10.998;2023-01-24T15:38:13;9.23;;;5.55;;
26582;SDS011;14230;45.382;10.998;2023-01-24T15:40:48;7.90;;;5.13;;
26582;SDS011;14230;45.382;10.998;2023-01-24T15:43:25;7.20;;;5.05;;
26582;SDS011;14230;45.382;10.998;2023-01-24T15:52:00;7.85;;;5.25;;
26582;SDS011;14230;45.382;10.998;2023-01-24T15:54:28;10.68;;;5.30;;
26582;SDS011;14230;45.382;10.998;2023-01-24T15:56:57;11.00;;;6.22;;
26582;SDS011;14230;45.382;10.998;2023-01-24T15:59:28;16.92;;;7.85;;
26582;SDS011;14230;45.382;10.998;2023-01-24T16:01:58;15.20;;;7.30;;
26582;SDS011;14230;45.382;10.998;2023-01-24T16:04:26;20.88;;;8.38;;
26582;SDS011;14230;45.382;10.998;2023-01-24T16:06:54;19.98;;;9.18;;
26582;SDS011;14230;45.382;10.998;2023-01-24T16:09:21;15.48;;;8.05;;
26582;SDS011;14230;45.382;10.998;2023-01-24T16:11:49;13.18;;;8.10;;
26582;SDS011;14230;45.382;10.998;2023-01-24T16:14:20;16.30;;;9.25;;
26582;SDS011;14230;45.382;10.998;2023-01-24T16:16:50;17.13;;;8.95;;
26582;SDS011;14230;45.382;10.998;2023-01-24T16:19:20;18.75;;;7.63;;
26582;SDS011;14230;45.382;10.998;2023-01-24T16:21:50;12.38;;;7.50;;
26582;SDS011;14230;45.382;10.998;2023-01-24T16:24:18;13.35;;;7.40;;
26582;SDS011;14230;45.382;10.998;2023-01-24T16:26:48;22.27;;;13.63;;
26582;SDS011;14230;45.382;10.998;2023-01-24T16:29:18;21.65;;;13.88;;
26582;SDS011;14230;45.382;10.998;2023-01-24T16:31:48;22.58;;;12.02;;
26582;SDS011;14230;45.382;10.998;2023-01-24T16:34:16;13.90;;;9.10;;
26582;SDS011;14230;45.382;10.998;2023-01-24T16:36:46;12.20;;;7.38;;
26582;SDS011;14230;45.382;10.998;2023-01-24T16:39:15;14.35;;;7.18;;
26582;SDS011;14230;45.382;10.998;2023-01-24T16:41:47;14.23;;;7.53;;
26582;SDS011;14230;45.382;10.998;2023-01-24T16:44:16;13.23;;;9.15;;
26582;SDS011;14230;45.382;10.998;2023-01-24T16:46:48;21.02;;;10.77;;
26582;SDS011;14230;45.382;10.998;2023-01-24T16:49:16;64.30;;;29.25;;
26582;SDS011;14230;45.382;10.998;2023-01-24T16:51:44;24.92;;;12.95;;
26582;SDS011;14230;45.382;10.998;2023-01-24T16:54:13;16.65;;;9.55;;
26582;SDS011;14230;45.382;10.998;2023-01-24T16:56:41;14.95;;;8.57;;
26582;SDS011;14230;45.382;10.998;2023-01-24T16:59:12;16.88;;;8.82;;
26582;SDS011;14230;45.382;10.998;2023-01-24T17:01:39;18.40;;;8.65;;
26582;SDS011;14230;45.382;10.998;2023-01-24T17:04:07;19.08;;;10.88;;
26582;SDS011;14230;45.382;10.998;2023-01-24T17:06:35;16.30;;;10.27;;
26582;SDS011;14230;45.382;10.998;2023-01-24T17:09:03;23.05;;;11.25;;
26582;SDS011;14230;45.382;10.998;2023-01-24T17:11:33;24.67;;;11.15;;
26582;SDS011;14230;45.382;10.998;2023-01-24T17:14:00;19.13;;;10.25;;
26582;SDS011;14230;45.382;10.998;2023-01-24T17:16:28;23.45;;;11.70;;
26582;SDS011;14230;45.382;10.998;2023-01-24T17:18:55;23.25;;;11.93;;
26582;SDS011;14230;45.382;10.998;2023-01-24T17:21:24;22.23;;;11.82;;
26582;SDS011;14230;45.382;10.998;2023-01-24T17:23:52;24.70;;;11.35;;
26582;SDS011;14230;45.382;10.998;2023-01-24T17:26:19;20.52;;;11.35;;
26582;SDS011;14230;45.382;10.998;2023-01-24T17:28:47;21.50;;;12.05;;
26582;SDS011;14230;45.382;10.998;2023-01-24T17:31:16;36.33;;;19.75;;
26582;SDS011;14230;45.382;10.998;2023-01-24T17:33:45;26.90;;;15.63;;
26582;SDS011;14230;45.382;10.998;2023-01-24T17:36:13;19.80;;;12.65;;
26582;SDS011;14230;45.382;10.998;2023-01-24T17:38:44;23.88;;;13.10;;
26582;SDS011;14230;45.382;10.998;2023-01-24T17:41:12;28.38;;;13.13;;
26582;SDS011;14230;45.382;10.998;2023-01-24T17:43:40;24.95;;;13.82;;